Time;durP1;ratioP1;P1;durP2;ratioP2;P2;SDS_P1;SDS_P2;PMS_P1;PMS_P2;Temp;Humidity;BMP_temperature;BMP_pressure;BME280_temperature;BME280_humidity;BME280_pressure;Samples;Min_cycle;Max_cycle;Signal;HPM_P1;HPM_P2
2022/07/06 00:00:41;;;;;;;;;;;;;;;24.64;82.05;96985.46;630030;226;40149;-73
2022/07/06 00:03:08;;;;;;;;;;;;;;;24.63;81.93;96984.64;630049;226;41317;-73
2022/07/06 00:05:35;;;;;;;;;;;;;;;24.64;81.85;96977.41;630051;226;42063;-73
2022/07/06 00:08:03;;;;;;;;;;;;;;;24.64;81.92;96977.41;630075;226;41371;-73
2022/07/06 00:10:30;;;;;;;;;;;;;;;24.64;81.87;96966.66;630030;226;41400;-73
2022/07/06 00:12:58;;;;;;;;;;;;;;;24.63;81.88;96963.15;628676;226;41994;-73
2022/07/06 00:15:25;;;;;;;;;;;;;;;24.64;81.93;96953.22;627718;227;41431;-73
2022/07/06 00:17:53;;;;;;;;;;;;;;;24.63;81.80;96954.30;627765;227;41455;-73
2022/07/06 00:20:20;;;;;;;;;;;;;;;24.63;81.85;96943.55;627754;227;41924;-72
2022/07/06 00:22:48;;;;;;;;;;;;;;;24.64;81.84;96934.41;627741;227;41434;-72
2022/07/06 00:25:15;;;;;;;;;;;;;;;24.63;81.79;96925.53;627756;227;39329;-72
2022/07/06 00:27:43;;;;;;;;;;;;;;;24.64;81.92;96931.72;627704;227;39771;-73
2022/07/06 00:30:11;;;;;;;;;;;;;;;24.63;81.89;96922.05;627760;227;39019;-73
2022/07/06 00:32:38;;;;;;;;;;;;;;;24.64;81.81;96915.60;627763;224;41529;-73
2022/07/06 00:35:06;;;;;;;;;;;;;;;24.64;81.83;96910.23;627702;227;40739;-73
2022/07/06 00:37:34;;;;;;;;;;;;;;;24.63;81.81;96911.30;627762;227;40281;-73
2022/07/06 00:40:01;;;;;;;;;;;;;;;24.63;81.84;96897.87;627763;227;39214;-73
2022/07/06 00:42:29;;;;;;;;;;;;;;;24.63;81.78;96900.55;627735;227;39686;-73
2022/07/06 00:44:56;;;;;;;;;;;;;;;24.63;81.81;96900.55;627781;227;41464;-72
2022/07/06 00:47:24;;;;;;;;;;;;;;;24.64;81.83;96896.80;627753;227;40031;-73
2022/07/06 00:52:37;;;;;;;;;;;;;;;24.64;81.79;96891.42;627740;227;41342;-72
2022/07/06 00:55:04;;;;;;;;;;;;;;;24.64;81.84;96880.67;627759;227;41384;-71
2022/07/06 00:57:32;;;;;;;;;;;;;;;24.64;81.90;96886.05;627708;227;40532;-72
2022/07/06 00:59:59;;;;;;;;;;;;;;;24.63;81.83;96882.54;627796;227;41609;-72
2022/07/06 01:02:27;;;;;;;;;;;;;;;24.63;81.84;96882.54;627756;227;41529;-72
2022/07/06 01:04:54;;;;;;;;;;;;;;;24.63;81.88;96879.06;627731;227;40652;-72
2022/07/06 01:07:22;;;;;;;;;;;;;;;24.64;81.81;96880.67;627740;227;38975;-72
2022/07/06 01:09:49;;;;;;;;;;;;;;;24.64;81.87;96877.98;627742;227;39352;-71
2022/07/06 01:12:17;;;;;;;;;;;;;;;24.64;81.84;96869.92;628394;226;39827;-72
2022/07/06 01:14:45;;;;;;;;;;;;;;;24.64;81.86;96867.23;630012;226;39041;-70
2022/07/06 01:17:14;;;;;;;;;;;;;;;24.64;81.88;96867.23;630046;226;41459;-70
2022/07/06 01:19:41;;;;;;;;;;;;;;;24.64;81.81;96861.86;629984;226;39650;-70
2022/07/06 01:22:09;;;;;;;;;;;;;;;24.64;81.69;96864.55;630029;226;39013;-70
2022/07/06 01:24:39;;;;;;;;;;;;;;;24.64;81.76;96856.48;630046;226;40122;-70
2022/07/06 01:27:07;;;;;;;;;;;;;;;24.63;81.83;96855.67;629979;226;40859;-70
2022/07/06 01:29:35;;;;;;;;;;;;;;;24.63;81.85;96850.30;629997;226;41343;-72
2022/07/06 01:32:02;;;;;;;;;;;;;;;24.63;81.81;96852.19;630028;226;41476;-72
2022/07/06 01:34:30;;;;;;;;;;;;;;;24.63;81.83;96842.23;629996;226;39923;-72
2022/07/06 01:36:57;;;;;;;;;;;;;;;24.63;81.76;96846.81;630054;226;41229;-72
2022/07/06 01:39:25;;;;;;;;;;;;;;;24.64;81.74;96853.80;630002;226;40038;-72
2022/07/06 01:41:52;;;;;;;;;;;;;;;24.64;81.71;96848.43;630032;226;40781;-72
2022/07/06 01:44:20;;;;;;;;;;;;;;;24.63;81.69;96842.23;629981;226;39885;-70
2022/07/06 01:46:47;;;;;;;;;;;;;;;24.64;81.73;96848.43;630051;226;39140;-70
2022/07/06 01:49:15;;;;;;;;;;;;;;;24.64;81.73;96853.80;630086;226;39841;-70
2022/07/06 01:51:43;;;;;;;;;;;;;;;24.64;81.81;96848.43;630031;226;41574;-70
2022/07/06 01:54:10;;;;;;;;;;;;;;;24.64;81.79;96851.12;630012;226;39222;-70
2022/07/06 01:56:38;;;;;;;;;;;;;;;24.63;81.83;96852.98;630041;226;42297;-70
2022/07/06 01:59:06;;;;;;;;;;;;;;;24.63;81.75;96862.94;630000;226;40119;-70
2022/07/06 02:01:34;;;;;;;;;;;;;;;24.63;81.74;96847.61;630135;226;39146;-70
2022/07/06 02:04:02;;;;;;;;;;;;;;;24.64;81.75;96848.43;630028;226;41821;-70
2022/07/06 02:06:29;;;;;;;;;;;;;;;24.64;81.65;96848.43;630018;226;39946;-70
2022/07/06 02:08:57;;;;;;;;;;;;;;;24.64;81.67;96845.74;630029;226;39304;-70
2022/07/06 02:11:27;;;;;;;;;;;;;;;24.64;81.67;96845.74;630028;226;40726;-70
2022/07/06 02:13:55;;;;;;;;;;;;;;;24.64;81.65;96840.37;630000;226;41220;-70
2022/07/06 02:16:24;;;;;;;;;;;;;;;24.63;81.72;96846.81;630057;226;39183;-70
2022/07/06 02:18:51;;;;;;;;;;;;;;;24.63;81.68;96838.76;629985;226;42184;-70
2022/07/06 02:21:19;;;;;;;;;;;;;;;24.64;81.64;96837.69;630011;226;39230;-70
2022/07/06 02:23:47;;;;;;;;;;;;;;;24.63;81.67;96834.17;629992;225;41496;-70
2022/07/06 02:26:15;;;;;;;;;;;;;;;24.64;81.71;96832.31;630018;225;39630;-70
2022/07/06 02:28:46;;;;;;;;;;;;;;;24.63;81.66;96831.48;630075;226;39898;-70
2022/07/06 02:31:13;;;;;;;;;;;;;;;24.64;81.59;96824.25;630024;226;39189;-70
2022/07/06 02:33:40;;;;;;;;;;;;;;;24.63;81.60;96822.64;629948;226;39651;-70
2022/07/06 02:36:08;;;;;;;;;;;;;;;24.63;81.62;96823.42;629983;226;41477;-70
2022/07/06 02:38:36;;;;;;;;;;;;;;;24.63;81.64;96825.33;630019;226;40447;-69
2022/07/06 02:41:04;;;;;;;;;;;;;;;24.64;81.61;96821.56;630047;226;39820;-69
2022/07/06 02:43:31;;;;;;;;;;;;;;;24.63;81.58;96819.95;629973;226;39290;-69
2022/07/06 02:45:59;;;;;;;;;;;;;;;24.64;81.70;96826.94;629961;226;41550;-69
2022/07/06 02:48:26;;;;;;;;;;;;;;;24.64;81.76;96832.31;630010;226;42114;-69
2022/07/06 02:50:54;;;;;;;;;;;;;;;24.64;81.81;96832.31;629995;226;38802;-70
2022/07/06 02:53:22;;;;;;;;;;;;;;;24.62;81.79;96851.41;630064;226;41990;-69
2022/07/06 02:55:51;;;;;;;;;;;;;;;24.63;81.85;96852.19;630045;225;20788;-69
2022/07/06 02:58:19;;;;;;;;;;;;;;;24.63;81.81;96862.94;629969;226;40207;-70
2022/07/06 03:00:48;;;;;;;;;;;;;;;24.63;81.88;96873.69;630023;226;39204;-69
2022/07/06 03:03:16;;;;;;;;;;;;;;;24.63;81.93;96877.16;629999;225;42260;-70
2022/07/06 03:05:46;;;;;;;;;;;;;;;24.63;81.90;96884.44;630001;226;40122;-70
2022/07/06 03:08:13;;;;;;;;;;;;;;;24.63;81.88;96901.34;630069;226;39070;-70
2022/07/06 03:10:40;;;;;;;;;;;;;;;24.63;81.89;96903.24;629970;226;42267;-70
2022/07/06 03:13:08;;;;;;;;;;;;;;;24.63;81.95;96911.30;629946;226;41479;-70
2022/07/06 03:15:37;;;;;;;;;;;;;;;24.63;81.94;96917.47;630034;226;39435;-70
2022/07/06 03:18:04;;;;;;;;;;;;;;;24.63;81.98;96916.68;630041;226;41787;-70
2022/07/06 03:20:32;;;;;;;;;;;;;;;24.62;81.94;96913.20;630058;226;41504;-70
2022/07/06 03:23:00;;;;;;;;;;;;;;;24.63;81.92;96922.05;630035;226;40325;-70
2022/07/06 03:25:27;;;;;;;;;;;;;;;24.62;81.95;96917.78;630016;226;39831;-70
2022/07/06 03:27:55;;;;;;;;;;;;;;;24.62;81.98;96923.16;629995;226;39348;-70
2022/07/06 03:30:22;;;;;;;;;;;;;;;24.63;81.90;96927.42;630047;226;41535;-70
2022/07/06 03:32:51;;;;;;;;;;;;;;;24.62;81.93;96921.26;630079;225;19514;-72
2022/07/06 03:35:19;;;;;;;;;;;;;;;24.62;81.94;96915.88;629986;226;41867;-70
2022/07/06 03:37:48;;;;;;;;;;;;;;;24.62;81.94;96925.84;630031;226;42182;-70
2022/07/06 03:40:16;;;;;;;;;;;;;;;24.62;81.90;96923.16;630005;226;39271;-70
2022/07/06 03:42:44;;;;;;;;;;;;;;;24.61;81.95;96925.05;629969;226;41910;-70
2022/07/06 03:45:12;;;;;;;;;;;;;;;24.62;81.94;96931.22;630056;226;40377;-70
2022/07/06 03:47:40;;;;;;;;;;;;;;;24.61;81.89;96935.80;630062;226;39508;-70
2022/07/06 03:50:09;;;;;;;;;;;;;;;24.61;81.82;96934.98;630015;226;41913;-70
2022/07/06 03:52:40;;;;;;;;;;;;;;;24.62;81.85;96941.97;630005;226;39560;-70
2022/07/06 03:55:10;;;;;;;;;;;;;;;24.62;81.79;96939.28;630032;226;40757;-70
2022/07/06 03:57:40;;;;;;;;;;;;;;;24.62;81.84;96945.44;629805;225;39149;-70
2022/07/06 04:00:09;;;;;;;;;;;;;;;24.62;81.84;96940.06;630078;226;39796;-70
2022/07/06 04:02:45;;;;;;;;;;;;;;;24.62;81.81;96942.75;630057;225;19409;-70
2022/07/06 04:05:15;;;;;;;;;;;;;;;24.62;81.81;96936.59;629996;225;18132;-69
2022/07/06 04:07:43;;;;;;;;;;;;;;;24.62;81.77;96936.59;630009;226;40298;-70
2022/07/06 04:10:11;;;;;;;;;;;;;;;24.63;81.86;96938.17;630015;226;39509;-70
2022/07/06 04:12:43;;;;;;;;;;;;;;;24.61;81.86;96930.42;630016;226;41614;-70
2022/07/06 04:15:11;;;;;;;;;;;;;;;24.62;81.80;96936.59;629891;225;41540;-70
2022/07/06 04:17:52;;;;;;;;;;;;;;;24.61;81.81;96933.11;629979;226;39318;-70
2022/07/06 04:20:20;;;;;;;;;;;;;;;24.62;81.88;96941.97;630010;226;40207;-70
2022/07/06 04:22:48;;;;;;;;;;;;;;;24.62;81.89;96947.34;630018;226;39643;-70
2022/07/06 04:25:16;;;;;;;;;;;;;;;24.62;81.94;96950.81;630027;226;41792;-70
2022/07/06 04:27:45;;;;;;;;;;;;;;;24.62;81.93;96963.45;630062;226;40372;-70
2022/07/06 04:30:14;;;;;;;;;;;;;;;24.61;82.10;96956.47;629981;226;42110;-70
2022/07/06 04:32:42;;;;;;;;;;;;;;;24.61;82.12;96951.09;630010;226;40925;-69
2022/07/06 04:35:10;;;;;;;;;;;;;;;24.62;81.93;96947.34;629989;225;39240;-70
2022/07/06 04:37:38;;;;;;;;;;;;;;;24.61;82.06;96953.78;630003;226;41648;-70
2022/07/06 04:40:06;;;;;;;;;;;;;;;24.61;81.98;96943.03;630026;226;41878;-69
2022/07/06 04:42:34;;;;;;;;;;;;;;;24.61;81.89;96945.72;630020;226;40293;-69
2022/07/06 04:45:01;;;;;;;;;;;;;;;24.61;81.88;96940.35;630015;226;39563;-69
2022/07/06 04:47:29;;;;;;;;;;;;;;;24.61;81.98;96940.35;629987;226;39678;-70
2022/07/06 04:49:58;;;;;;;;;;;;;;;24.61;81.97;96933.11;630007;226;40157;-69
2022/07/06 04:52:25;;;;;;;;;;;;;;;24.61;81.95;96937.66;630002;226;39516;-69
2022/07/06 04:54:53;;;;;;;;;;;;;;;24.61;81.90;96935.80;630061;226;42037;-69
2022/07/06 04:57:20;;;;;;;;;;;;;;;24.61;82.06;96945.72;629957;226;40075;-69
2022/07/06 04:59:48;;;;;;;;;;;;;;;24.61;81.98;96937.66;630014;226;40479;-69
2022/07/06 05:02:15;;;;;;;;;;;;;;;24.61;81.93;96937.66;630021;226;39718;-69
2022/07/06 05:04:43;;;;;;;;;;;;;;;24.61;82.05;96943.03;630015;226;41434;-71
2022/07/06 05:07:11;;;;;;;;;;;;;;;24.61;81.97;96937.66;630056;226;40282;-71
2022/07/06 05:09:38;;;;;;;;;;;;;;;24.61;82.00;96946.55;630004;226;39590;-71
2022/07/06 05:12:06;;;;;;;;;;;;;;;24.60;82.09;96944.94;629432;226;41919;-71
2022/07/06 05:14:35;;;;;;;;;;;;;;;24.61;82.13;96943.03;627743;227;40462;-72
2022/07/06 05:17:04;;;;;;;;;;;;;;;24.61;82.09;96934.98;627709;227;41686;-71
2022/07/06 05:19:31;;;;;;;;;;;;;;;24.61;82.16;96945.72;627775;227;38811;-71
2022/07/06 05:21:59;;;;;;;;;;;;;;;24.61;82.05;96951.92;627728;227;39439;-71
2022/07/06 05:24:26;;;;;;;;;;;;;;;24.60;82.06;96955.68;627677;227;42050;-71
2022/07/06 05:26:54;;;;;;;;;;;;;;;24.60;82.14;96950.30;627738;227;40104;-71
2022/07/06 05:29:22;;;;;;;;;;;;;;;24.60;82.17;96955.68;627739;227;38865;-72
2022/07/06 05:31:50;;;;;;;;;;;;;;;24.61;82.20;96953.78;627704;227;42363;-72
2022/07/06 05:34:17;;;;;;;;;;;;;;;24.61;82.16;96956.47;627770;227;40096;-71
2022/07/06 05:36:45;;;;;;;;;;;;;;;24.60;82.22;96952.99;627712;227;39609;-72
2022/07/06 05:39:18;;;;;;;;;;;;;;;24.61;82.21;96959.98;627677;227;42485;-72
2022/07/06 05:41:43;;;;;;;;;;;;;;;24.61;82.13;96972.59;627636;225;41623;-71
2022/07/06 05:44:11;;;;;;;;;;;;;;;24.60;82.13;96971.80;627749;226;40244;-71
2022/07/06 05:46:38;;;;;;;;;;;;;;;24.60;82.24;96971.80;627765;227;39670;-71
2022/07/06 05:51:52;;;;;;;;;;;;;;;24.61;82.26;96972.59;627737;227;39586;-71
2022/07/06 05:54:20;;;;;;;;;;;;;;;24.59;82.12;96973.70;627623;227;42176;-70
2022/07/06 05:56:48;;;;;;;;;;;;;;;24.59;82.15;96979.07;627041;227;39378;-71
2022/07/06 05:59:16;;;;;;;;;;;;;;;24.59;82.16;96976.38;627716;227;42216;-71
2022/07/06 06:01:44;;;;;;;;;;;;;;;24.59;82.32;96964.84;627712;227;40839;-71
2022/07/06 06:04:13;;;;;;;;;;;;;;;24.59;82.16;96965.63;627606;226;19223;-71
2022/07/06 06:06:41;;;;;;;;;;;;;;;24.59;82.01;96973.70;627530;226;41700;-70
2022/07/06 06:09:08;;;;;;;;;;;;;;;24.58;82.15;96980.17;627517;227;41981;-72
2022/07/06 06:11:36;;;;;;;;;;;;;;;24.58;82.06;96974.80;627485;227;40308;-71
2022/07/06 06:14:05;;;;;;;;;;;;;;;24.57;82.79;96970.50;626417;227;39789;-72
2022/07/06 06:16:32;;;;;;;;;;;;;;;24.55;80.94;96967.33;626290;227;42050;-72
2022/07/06 06:19:01;;;;;;;;;;;;;;;24.57;80.48;96967.02;626954;225;38741;-72
2022/07/06 06:21:28;;;;;;;;;;;;;;;24.57;80.65;96975.87;627559;227;40424;-70
2022/07/06 06:23:56;;;;;;;;;;;;;;;24.58;80.49;96977.48;627590;227;40687;-72
2022/07/06 06:26:23;;;;;;;;;;;;;;;24.59;80.52;96975.59;627695;227;40293;-71
2022/07/06 06:28:51;;;;;;;;;;;;;;;24.60;80.93;96977.17;627651;227;40442;-71
2022/07/06 06:31:18;;;;;;;;;;;;;;;24.59;81.21;96976.38;627587;227;40695;-71
2022/07/06 06:33:46;;;;;;;;;;;;;;;24.59;81.55;96979.07;627694;227;41517;-71
2022/07/06 06:36:13;;;;;;;;;;;;;;;24.59;81.73;96973.70;627717;227;39516;-71
2022/07/06 06:38:41;;;;;;;;;;;;;;;24.59;81.90;96973.70;627658;227;40687;-71
2022/07/06 06:41:08;;;;;;;;;;;;;;;24.59;81.83;96976.38;627689;227;40304;-72
2022/07/06 06:43:36;;;;;;;;;;;;;;;24.59;82.00;96975.59;627534;227;41687;-72
2022/07/06 06:46:08;;;;;;;;;;;;;;;24.59;82.01;96975.59;627541;225;23542;-72
2022/07/06 06:48:36;;;;;;;;;;;;;;;24.59;81.64;96973.70;627704;227;39401;-72
2022/07/06 06:51:05;;;;;;;;;;;;;;;24.58;81.83;96974.80;627641;227;41568;-71
2022/07/06 06:53:32;;;;;;;;;;;;;;;24.60;81.70;96982.55;627617;227;39869;-72
2022/07/06 06:56:00;;;;;;;;;;;;;;;24.59;81.35;96976.38;627608;227;39328;-71
2022/07/06 06:58:27;;;;;;;;;;;;;;;24.59;81.25;96972.91;627686;227;39659;-75
2022/07/06 07:00:55;;;;;;;;;;;;;;;24.59;81.01;96973.70;627632;227;41818;-72
2022/07/06 07:03:24;;;;;;;;;;;;;;;24.61;80.86;96978.79;627686;227;21591;-72
2022/07/06 07:05:51;;;;;;;;;;;;;;;24.60;80.89;96977.17;627758;227;41610;-72
2022/07/06 07:08:19;;;;;;;;;;;;;;;24.61;80.68;96972.59;627624;227;41999;-72
2022/07/06 07:10:46;;;;;;;;;;;;;;;24.61;80.72;96969.91;627556;227;40054;-72
2022/07/06 07:13:14;;;;;;;;;;;;;;;24.62;80.52;96971.52;629123;226;40348;-72
2022/07/06 07:15:41;;;;;;;;;;;;;;;24.61;80.42;96968.05;629709;226;41997;-72
2022/07/06 07:18:09;;;;;;;;;;;;;;;24.61;80.61;96970.73;629814;226;41527;-68
2022/07/06 07:20:36;;;;;;;;;;;;;;;24.61;80.73;96961.84;629824;226;41683;-68
2022/07/06 07:23:04;;;;;;;;;;;;;;;24.62;80.71;96964.25;629797;226;41964;-68
2022/07/06 07:25:31;;;;;;;;;;;;;;;24.63;80.87;96965.05;629744;226;41567;-68
2022/07/06 07:27:59;;;;;;;;;;;;;;;24.62;80.92;96974.20;629718;226;41776;-71
2022/07/06 07:30:28;;;;;;;;;;;;;;;24.63;81.36;96970.41;629815;226;22036;-67
2022/07/06 07:32:56;;;;;;;;;;;;;;;24.62;81.20;96976.89;629636;226;41766;-69
2022/07/06 07:35:23;;;;;;;;;;;;;;;24.63;81.58;96975.79;629868;226;41656;-68
2022/07/06 07:37:51;;;;;;;;;;;;;;;24.62;81.68;96980.38;629925;226;43067;-68
2022/07/06 07:40:18;;;;;;;;;;;;;;;24.62;81.72;96982.27;629772;226;40114;-68
2022/07/06 07:42:46;;;;;;;;;;;;;;;24.62;81.62;96979.58;629703;226;41566;-70
2022/07/06 07:45:13;;;;;;;;;;;;;;;24.62;81.60;96987.64;629963;226;42183;-68
2022/07/06 07:47:41;;;;;;;;;;;;;;;24.62;81.53;96982.27;629504;226;42366;-68
2022/07/06 07:50:09;;;;;;;;;;;;;;;24.62;81.60;96984.95;629797;223;41582;-68
2022/07/06 07:52:36;;;;;;;;;;;;;;;24.61;81.56;96989.53;637247;223;40703;-68
2022/07/06 07:55:04;;;;;;;;;;;;;;;24.62;81.58;96991.12;637281;223;39222;-68
2022/07/06 07:57:33;;;;;;;;;;;;;;;24.62;81.79;96990.33;637134;223;40351;-68
2022/07/06 08:00:01;;;;;;;;;;;;;;;24.62;81.53;97003.77;637288;223;40552;-68
2022/07/06 08:02:30;;;;;;;;;;;;;;;24.61;79.85;96988.72;636970;223;19543;-69
2022/07/06 08:04:58;;;;;;;;;;;;;;;24.61;81.89;96992.22;637225;223;41573;-68
2022/07/06 08:07:25;;;;;;;;;;;;;;;24.62;81.84;96990.33;637301;223;41929;-69
2022/07/06 08:09:53;;;;;;;;;;;;;;;24.62;81.66;96984.95;637366;223;40113;-70
2022/07/06 08:12:20;;;;;;;;;;;;;;;24.62;81.15;96988.44;636767;223;40456;-68
2022/07/06 08:14:49;;;;;;;;;;;;;;;24.62;81.00;96995.70;635832;224;42031;-67
2022/07/06 08:17:17;;;;;;;;;;;;;;;24.62;81.05;96995.70;635756;224;41346;-67
2022/07/06 08:19:44;;;;;;;;;;;;;;;24.62;81.16;96996.49;635728;224;41862;-68
2022/07/06 08:22:12;;;;;;;;;;;;;;;24.63;81.19;97002.66;635894;224;41895;-67
2022/07/06 08:24:39;;;;;;;;;;;;;;;24.63;78.80;96999.97;635650;224;41465;-68
2022/07/06 08:27:07;;;;;;;;;;;;;;;24.64;81.68;97006.95;635765;224;41832;-68
2022/07/06 08:29:34;;;;;;;;;;;;;;;24.62;81.52;97006.45;635677;224;40728;-71
2022/07/06 08:32:02;;;;;;;;;;;;;;;24.61;81.89;97007.52;635131;224;41693;-73
2022/07/06 08:34:29;;;;;;;;;;;;;;;24.59;81.91;97003.25;635906;224;41782;-73
2022/07/06 08:36:57;;;;;;;;;;;;;;;24.60;81.75;97009.42;635816;224;42081;-73
2022/07/06 08:39:24;;;;;;;;;;;;;;;24.58;81.64;97007.04;635749;224;39207;-75
2022/07/06 08:41:52;;;;;;;;;;;;;;;24.59;80.98;97007.83;635846;224;39773;-72
2022/07/06 08:44:21;;;;;;;;;;;;;;;24.62;79.20;97017.20;635655;224;39782;-71
2022/07/06 08:46:49;;;;;;;;;;;;;;;24.62;80.98;97011.82;635818;224;41633;-73
2022/07/06 08:49:17;;;;;;;;;;;;;;;24.61;81.06;97008.34;635891;224;40246;-78
2022/07/06 08:51:45;;;;;;;;;;;;;;;24.61;81.71;97008.34;628879;224;41452;-75
2022/07/06 08:54:13;;;;;;;;;;;;;;;24.60;81.61;97004.05;635830;224;41545;-72
2022/07/06 08:56:41;;;;;;;;;;;;;;;24.61;81.31;97011.03;635790;224;39636;-73
2022/07/06 08:59:10;;;;;;;;;;;;;;;24.61;81.12;97010.20;635803;224;41857;-80
2022/07/06 09:01:38;;;;;;;;;;;;;;;24.62;81.11;97015.30;635803;224;39267;-76
2022/07/06 09:04:09;;;;;;;;;;;;;;;24.62;81.10;97009.92;635846;224;41542;-74
2022/07/06 09:06:37;;;;;;;;;;;;;;;24.61;80.72;97005.66;622527;224;43359;-73
2022/07/06 09:09:06;;;;;;;;;;;;;;;24.62;80.69;97014.52;635735;224;41588;-73
2022/07/06 09:11:35;;;;;;;;;;;;;;;24.63;81.13;97013.41;635724;224;40343;-71
2022/07/06 09:14:05;;;;;;;;;;;;;;;24.62;80.96;97007.24;635348;224;42130;-73
2022/07/06 09:16:32;;;;;;;;;;;;;;;24.62;81.21;97011.82;635827;224;41527;-73
2022/07/06 09:19:00;;;;;;;;;;;;;;;24.61;81.61;97005.66;635884;224;41901;-73
2022/07/06 09:21:32;;;;;;;;;;;;;;;24.62;80.96;97006.45;635773;224;41953;-75
2022/07/06 09:24:00;;;;;;;;;;;;;;;24.62;80.28;97011.82;635786;224;41682;-63
2022/07/06 09:26:27;;;;;;;;;;;;;;;24.63;80.48;97002.66;635826;224;41615;-63
2022/07/06 09:29:03;;;;;;;;;;;;;;;24.64;80.46;97006.95;635850;223;42183;-63
2022/07/06 09:31:28;;;;;;;;;;;;;;;24.64;80.46;97005.06;635488;224;41577;-63
2022/07/06 09:34:10;;;;;;;;;;;;;;;24.63;79.78;97008.83;635863;224;41612;-63
2022/07/06 09:36:39;;;;;;;;;;;;;;;24.65;79.54;97012.02;635740;224;42159;-68
2022/07/06 09:39:23;;;;;;;;;;;;;;;24.64;79.52;97005.06;633503;224;41734;-69
2022/07/06 09:41:52;;;;;;;;;;;;;;;24.65;79.55;97008.55;635868;224;41594;-68
2022/07/06 09:44:24;;;;;;;;;;;;;;;24.69;79.47;97009.53;635697;224;39804;-69
2022/07/06 09:46:52;;;;;;;;;;;;;;;24.67;79.64;97007.16;635727;224;39325;-69
2022/07/06 09:49:23;;;;;;;;;;;;;;;24.67;79.57;97004.47;635855;224;39648;-68
2022/07/06 09:51:51;;;;;;;;;;;;;;;24.66;79.96;97000.17;635789;224;40929;-69
2022/07/06 09:54:19;;;;;;;;;;;;;;;24.66;79.83;96999.38;635777;224;39217;-70
2022/07/06 09:56:53;;;;;;;;;;;;;;;24.65;79.88;96990.53;635877;224;41601;-70
2022/07/06 09:59:26;;;;;;;;;;;;;;;24.66;79.81;96988.63;635757;224;41997;-68
2022/07/06 10:01:55;;;;;;;;;;;;;;;24.66;79.66;96991.31;635844;224;41748;-70
2022/07/06 10:04:24;;;;;;;;;;;;;;;24.65;79.61;96987.84;635605;224;40347;-70
2022/07/06 10:06:52;;;;;;;;;;;;;;;24.66;79.66;96989.42;635847;224;40700;-68
2022/07/06 10:09:20;;;;;;;;;;;;;;;24.66;79.59;96984.05;635869;224;40385;-69
2022/07/06 10:11:49;;;;;;;;;;;;;;;24.67;79.67;96987.55;634943;224;41955;-69
2022/07/06 10:14:19;;;;;;;;;;;;;;;24.67;79.80;96976.81;635128;224;40706;-70
2022/07/06 10:16:48;;;;;;;;;;;;;;;24.67;79.73;96966.06;634134;224;39270;-70
2022/07/06 10:19:18;;;;;;;;;;;;;;;24.66;79.69;96969.82;635042;224;41817;-70
2022/07/06 10:21:46;;;;;;;;;;;;;;;24.66;79.76;96964.45;635026;224;40689;-70
2022/07/06 10:24:13;;;;;;;;;;;;;;;24.67;79.76;96964.16;635078;224;39412;-70
2022/07/06 10:26:42;;;;;;;;;;;;;;;24.66;79.78;96954.49;635011;224;39662;-70
2022/07/06 10:29:09;;;;;;;;;;;;;;;24.67;79.84;96955.31;634939;224;41983;-70
2022/07/06 10:31:38;;;;;;;;;;;;;;;24.66;79.83;96954.49;635053;224;41689;-65
2022/07/06 10:34:07;;;;;;;;;;;;;;;24.67;79.78;96966.06;635021;224;41635;-70
2022/07/06 10:36:39;;;;;;;;;;;;;;;24.67;79.79;96960.69;635148;224;40738;-69
2022/07/06 10:41:52;;;;;;;;;;;;;;;24.67;79.93;96948.04;635054;224;40433;-69
2022/07/06 10:44:22;;;;;;;;;;;;;;;24.67;79.94;96941.88;635069;224;41991;-69
2022/07/06 10:46:57;;;;;;;;;;;;;;;24.67;79.99;96942.67;635049;224;40240;-68
2022/07/06 10:49:25;;;;;;;;;;;;;;;24.67;80.01;96939.98;634915;224;40388;-70
2022/07/06 10:51:54;;;;;;;;;;;;;;;24.68;80.04;96946.14;635060;224;40895;-70
2022/07/06 10:54:21;;;;;;;;;;;;;;;24.67;80.00;96945.36;634884;224;39491;-70
2022/07/06 10:56:50;;;;;;;;;;;;;;;24.67;79.96;96945.36;635050;224;39494;-70
2022/07/06 10:59:21;;;;;;;;;;;;;;;24.67;80.07;96944.56;634970;224;22247;-70
2022/07/06 11:02:03;;;;;;;;;;;;;;;24.68;80.10;96938.08;634402;224;39240;-70
2022/07/06 11:04:33;;;;;;;;;;;;;;;24.67;80.12;96939.19;621225;224;39412;-70
2022/07/06 11:07:02;;;;;;;;;;;;;;;24.67;80.10;96937.30;635081;224;42305;-70
2022/07/06 11:09:33;;;;;;;;;;;;;;;24.67;80.15;96936.50;634747;224;40136;-70
2022/07/06 11:12:02;;;;;;;;;;;;;;;24.67;80.21;96941.88;635054;224;39829;-70
2022/07/06 11:14:31;;;;;;;;;;;;;;;24.67;80.15;96937.30;636768;223;39172;-70
2022/07/06 11:17:02;;;;;;;;;;;;;;;24.68;80.21;96935.40;636904;223;41471;-67
2022/07/06 11:19:30;;;;;;;;;;;;;;;24.67;80.21;96931.13;637215;223;41510;-74
2022/07/06 11:21:59;;;;;;;;;;;;;;;24.68;80.27;96935.40;637317;223;42196;-69
2022/07/06 11:24:31;;;;;;;;;;;;;;;24.69;80.89;96942.35;636622;223;40280;-71
2022/07/06 11:26:59;;;;;;;;;;;;;;;24.69;81.07;96942.35;637258;223;39468;-71
2022/07/06 11:29:27;;;;;;;;;;;;;;;24.67;80.62;96933.81;637280;223;40182;-69
2022/07/06 11:31:55;;;;;;;;;;;;;;;24.68;80.24;96940.77;637121;223;39322;-69
2022/07/06 11:34:25;;;;;;;;;;;;;;;24.68;80.62;96944.25;637221;223;41634;-69
2022/07/06 11:36:57;;;;;;;;;;;;;;;24.68;80.67;96938.08;636938;223;41984;-71
2022/07/06 11:39:29;;;;;;;;;;;;;;;24.68;80.69;96940.77;636957;223;41754;-71
2022/07/06 11:41:57;;;;;;;;;;;;;;;24.68;80.85;96936.19;636999;223;41795;-70
2022/07/06 11:44:30;;;;;;;;;;;;;;;24.69;80.87;96942.35;630685;223;39772;-70
2022/07/06 11:47:02;;;;;;;;;;;;;;;24.68;80.95;96935.40;629580;226;39440;-70
2022/07/06 11:49:24;;;;;;;;;;;;;;;24.69;81.06;96936.98;629217;226;39681;-70
2022/07/06 11:51:52;;;;;;;;;;;;;;;24.68;81.08;96930.02;629636;226;39772;-70
2022/07/06 11:54:20;;;;;;;;;;;;;;;24.68;81.13;96921.96;629809;226;41510;-69
2022/07/06 11:56:52;;;;;;;;;;;;;;;24.69;81.12;96918.17;629824;226;41650;-70
2022/07/06 11:59:24;;;;;;;;;;;;;;;24.68;81.20;96917.38;629796;226;41941;-71
2022/07/06 12:01:53;;;;;;;;;;;;;;;24.69;81.20;96912.80;629862;226;39568;-70
2022/07/06 12:04:22;;;;;;;;;;;;;;;24.69;81.23;96904.73;627353;226;39570;-69
2022/07/06 12:06:50;;;;;;;;;;;;;;;24.69;81.20;96907.42;629774;226;42170;-70
2022/07/06 12:09:17;;;;;;;;;;;;;;;24.69;81.19;96910.11;629829;226;39339;-72
2022/07/06 12:11:49;;;;;;;;;;;;;;;24.69;81.07;96912.80;629306;226;39522;-71
2022/07/06 12:14:18;;;;;;;;;;;;;;;24.69;81.07;96915.48;628462;226;39764;-72
2022/07/06 12:16:47;;;;;;;;;;;;;;;24.70;80.99;96919.78;628559;227;41816;-73
2022/07/06 12:19:16;;;;;;;;;;;;;;;24.69;80.98;96924.36;628568;227;23035;-72
2022/07/06 12:21:48;;;;;;;;;;;;;;;24.69;81.01;96923.55;628474;227;40032;-70
2022/07/06 12:24:19;;;;;;;;;;;;;;;24.69;80.98;96921.67;628546;227;41735;-72
2022/07/06 12:26:47;;;;;;;;;;;;;;;24.68;80.98;96925.44;628445;227;41780;-72
2022/07/06 12:29:15;;;;;;;;;;;;;;;24.68;81.02;96925.44;628557;227;40640;-72
2022/07/06 12:31:44;;;;;;;;;;;;;;;24.69;81.04;96928.92;628275;227;39345;-72
2022/07/06 12:34:16;;;;;;;;;;;;;;;24.68;81.04;96920.06;628482;227;39585;-73
2022/07/06 12:36:45;;;;;;;;;;;;;;;24.69;81.03;96918.98;628195;227;39911;-72
2022/07/06 12:39:13;;;;;;;;;;;;;;;24.69;81.03;96926.23;628520;227;41737;-72
2022/07/06 12:41:51;;;;;;;;;;;;;;;24.69;80.98;96924.36;628365;227;39771;-65
2022/07/06 12:44:20;;;;;;;;;;;;;;;24.69;80.91;96934.30;628467;227;40798;-69
2022/07/06 12:46:47;;;;;;;;;;;;;;;24.70;81.18;96934.01;628532;227;39520;-69
2022/07/06 12:49:25;;;;;;;;;;;;;;;24.68;81.41;96928.13;628298;227;41837;-69
2022/07/06 12:52:09;;;;;;;;;;;;;;;24.68;81.02;96930.02;628324;227;42081;-69
2022/07/06 12:54:45;;;;;;;;;;;;;;;24.68;81.19;96935.40;628483;227;39223;-69
2022/07/06 12:57:25;;;;;;;;;;;;;;;24.67;81.36;96937.30;628419;227;41787;-69
2022/07/06 12:59:56;;;;;;;;;;;;;;;24.67;81.49;96936.50;628526;227;40041;-69
2022/07/06 13:02:25;;;;;;;;;;;;;;;24.68;81.50;96940.77;628518;227;41791;-69